Time;durP1;ratioP1;P1;durP2;ratioP2;P2;SDS_P1;SDS_P2;PMS_P1;PMS_P2;Temp;Humidity;BMP_temperature;BMP_pressure;BME280_temperature;BME280_humidity;BME280_pressure;Samples;Min_cycle;Max_cycle;Signal;HPM_P1;HPM_P2
2022/01/01 00:00:24;;;;;;;192.73;105.97;;;9.20;99.90;;;;;;4954589;28;20055;-50
2022/01/01 00:02:49;;;;;;;206.82;107.18;;;9.30;99.90;;;;;;4949934;28;20051;-49
2022/01/01 00:05:15;;;;;;;204.38;100.25;;;9.20;99.90;;;;;;4945936;29;20105;-47
2022/01/01 00:07:41;;;;;;;168.82;88.47;;;9.20;99.90;;;;;;4944358;29;20074;-47
2022/01/01 00:10:08;;;;;;;174.02;95.03;;;9.20;99.90;;;;;;4926859;29;20110;-47
2022/01/01 00:12:34;;;;;;;168.68;83.95;;;9.20;99.90;;;;;;4911839;29;20058;-47
2022/01/01 00:15:00;;;;;;;174.77;80.78;;;9.30;99.90;;;;;;4927394;29;20039;-47
2022/01/01 00:17:26;;;;;;;152.98;69.35;;;9.20;99.90;;;;;;4943002;28;20055;-47
2022/01/01 00:19:55;;;;;;;139.25;65.10;;;9.20;99.90;;;;;;4942113;28;20356;-48
2022/01/01 00:22:21;;;;;;;130.90;62.10;;;9.20;99.90;;;;;;4945894;28;20133;-47
2022/01/01 00:24:47;;;;;;;113.18;49.90;;;9.10;99.90;;;;;;4926880;29;20059;-49
2022/01/01 00:27:12;;;;;;;126.20;45.38;;;9.20;99.90;;;;;;4943685;28;20043;-49
2022/01/01 00:29:38;;;;;;;125.15;52.03;;;9.00;99.90;;;;;;4943255;28;20387;-47
2022/01/01 00:32:04;;;;;;;109.80;44.00;;;9.00;99.90;;;;;;4943525;28;20050;-49
2022/01/01 00:34:30;;;;;;;109.78;40.03;;;9.00;99.90;;;;;;4925908;29;20600;-48
2022/01/01 00:36:55;;;;;;;99.68;36.05;;;9.10;99.90;;;;;;4937940;28;20251;-47
2022/01/01 00:39:21;;;;;;;102.28;35.70;;;9.00;99.90;;;;;;4941928;28;20047;-49
2022/01/01 00:41:47;;;;;;;118.50;38.58;;;8.90;99.90;;;;;;4942688;28;20077;-47
2022/01/01 00:44:13;;;;;;;102.38;36.58;;;8.90;99.90;;;;;;4947539;28;20110;-47
2022/01/01 00:46:39;;;;;;;117.35;39.65;;;9.00;99.90;;;;;;4945020;28;20929;-47
2022/01/01 00:49:05;;;;;;;119.68;47.55;;;8.90;99.90;;;;;;4939753;29;20091;-49
2022/01/01 00:51:31;;;;;;;139.23;59.72;;;8.80;99.90;;;;;;4947441;29;20123;-49
2022/01/01 00:53:56;;;;;;;158.80;66.70;;;8.90;99.90;;;;;;4911645;29;20453;-46
2022/01/01 00:56:26;;;;;;;164.07;71.25;;;9.00;99.90;;;;;;4925866;29;20063;-48
2022/01/01 00:58:52;;;;;;;171.10;79.70;;;8.90;99.90;;;;;;4935052;28;20059;-47
2022/01/01 01:01:18;;;;;;;181.13;79.22;;;9.00;99.90;;;;;;4945357;29;20575;-48
2022/01/01 01:03:43;;;;;;;195.57;87.97;;;8.90;99.90;;;;;;4947769;29;20051;-48
2022/01/01 01:06:12;;;;;;;171.18;85.80;;;9.00;99.90;;;;;;4947522;29;20051;-49
2022/01/01 01:08:47;;;;;;;192.95;92.53;;;9.00;99.90;;;;;;4924630;29;20541;-47
2022/01/01 01:11:12;;;;;;;176.63;83.15;;;9.00;99.90;;;;;;4950333;29;20051;-47
2022/01/01 01:13:44;;;;;;;156.57;75.57;;;9.00;99.90;;;;;;4954484;28;20062;-47
2022/01/01 01:16:10;;;;;;;174.00;71.05;;;9.00;99.90;;;;;;4931211;29;20083;-50
2022/01/01 01:18:36;;;;;;;160.27;70.93;;;9.00;99.90;;;;;;4943868;28;20142;-52
2022/01/01 01:21:02;;;;;;;155.13;64.32;;;9.00;99.90;;;;;;4937302;28;20046;-51
2022/01/01 01:23:27;;;;;;;151.98;63.17;;;8.90;99.90;;;;;;4949651;28;20392;-47
2022/01/01 01:25:55;;;;;;;136.07;55.38;;;8.90;99.90;;;;;;4927281;29;20051;-48
2022/01/01 01:28:21;;;;;;;142.20;56.90;;;8.80;99.90;;;;;;4941212;29;20126;-48
2022/01/01 01:30:47;;;;;;;132.77;52.95;;;8.80;99.90;;;;;;4948941;28;20055;-47
2022/01/01 01:33:13;;;;;;;124.63;51.72;;;8.80;99.90;;;;;;4947081;29;20047;-49
2022/01/01 01:35:39;;;;;;;140.40;50.65;;;8.80;99.90;;;;;;4950487;28;20526;-47
2022/01/01 01:38:05;;;;;;;137.93;48.70;;;8.70;99.90;;;;;;4945828;29;20054;-47
2022/01/01 01:40:31;;;;;;;123.55;45.60;;;8.70;99.90;;;;;;4947140;28;20069;-46
2022/01/01 01:42:57;;;;;;;122.60;44.67;;;8.60;99.90;;;;;;4946343;28;20051;-47
2022/01/01 01:45:27;;;;;;;121.35;42.28;;;8.60;99.90;;;;;;4946609;28;20141;-47
2022/01/01 01:47:53;;;;;;;110.85;41.30;;;8.60;99.90;;;;;;4915820;29;20056;-49
2022/01/01 01:50:20;;;;;;;119.63;42.17;;;8.60;99.90;;;;;;4926645;29;20063;-47
2022/01/01 01:52:54;;;;;;;120.80;48.53;;;8.60;99.90;;;;;;4925831;29;20138;-47
2022/01/01 01:55:20;;;;;;;149.60;58.88;;;8.70;99.90;;;;;;4943365;28;20493;-48
2022/01/01 01:57:46;;;;;;;130.40;62.20;;;8.60;99.90;;;;;;4945390;28;20473;-47
2022/01/01 02:02:54;;;;;;;170.57;74.60;;;8.60;99.90;;;;;;4946814;28;20059;-47
2022/01/01 02:05:19;;;;;;;165.75;82.40;;;8.50;99.90;;;;;;4945985;28;20134;-47
2022/01/01 02:07:46;;;;;;;187.27;83.30;;;8.50;99.90;;;;;;4946369;29;20260;-50
2022/01/01 02:10:12;;;;;;;193.45;86.38;;;8.60;99.90;;;;;;4942195;28;20055;-47
2022/01/01 02:12:40;;;;;;;215.90;90.80;;;8.60;99.90;;;;;;4945907;29;20713;-48
2022/01/01 02:15:13;;;;;;;187.25;90.07;;;8.60;99.90;;;;;;4945596;29;20070;-47
2022/01/01 02:17:39;;;;;;;183.57;87.95;;;8.60;99.90;;;;;;4918921;29;20055;-47
2022/01/01 02:20:28;;;;;;;181.15;87.43;;;8.70;99.90;;;;;;4944501;28;20043;-48
2022/01/01 02:22:58;;;;;;;184.25;85.00;;;8.60;99.90;;;;;;4880718;29;20444;-46
2022/01/01 02:25:24;;;;;;;181.00;82.82;;;8.60;99.90;;;;;;4885821;29;20099;-49
2022/01/01 02:27:50;;;;;;;165.98;80.32;;;8.70;99.90;;;;;;4873280;29;20060;-47
2022/01/01 02:30:16;;;;;;;178.38;80.35;;;8.60;99.90;;;;;;4880707;29;20079;-47
2022/01/01 02:32:42;;;;;;;164.77;76.60;;;8.70;99.90;;;;;;4873449;29;20059;-46
2022/01/01 02:35:12;;;;;;;163.05;71.22;;;8.70;99.90;;;;;;4868919;29;20076;-53
2022/01/01 02:37:39;;;;;;;164.98;73.53;;;8.70;99.90;;;;;;4885149;29;20057;-51
2022/01/01 02:40:05;;;;;;;164.05;70.57;;;8.70;99.90;;;;;;4885308;29;20059;-48
2022/01/01 02:42:32;;;;;;;149.93;69.38;;;8.70;99.90;;;;;;4878535;29;20049;-47
2022/01/01 02:44:59;;;;;;;157.15;71.75;;;8.80;99.90;;;;;;4866081;29;20105;-47
2022/01/01 02:47:26;;;;;;;150.15;70.18;;;8.90;99.90;;;;;;4865796;29;20071;-48
2022/01/01 02:49:52;;;;;;;165.90;71.43;;;8.90;99.90;;;;;;4887167;29;20460;-48
2022/01/01 02:52:18;;;;;;;157.57;74.00;;;9.00;99.90;;;;;;4873999;29;20112;-51
2022/01/01 02:54:43;;;;;;;146.20;71.10;;;9.00;99.90;;;;;;4875168;29;20118;-48
2022/01/01 02:57:09;;;;;;;144.55;69.85;;;9.10;99.90;;;;;;4871779;29;20577;-50
2022/01/01 02:59:35;;;;;;;163.02;75.50;;;9.20;99.90;;;;;;4896327;29;20098;-47
2022/01/01 03:02:01;;;;;;;155.27;79.03;;;9.00;99.90;;;;;;4928120;29;20047;-48
2022/01/01 03:04:26;;;;;;;150.98;81.05;;;9.30;99.90;;;;;;4945392;29;20122;-47
2022/01/01 03:06:59;;;;;;;157.45;80.53;;;9.20;99.90;;;;;;4944451;28;20402;-48
2022/01/01 03:09:27;;;;;;;156.70;79.33;;;9.10;99.90;;;;;;4928105;28;21135;-46
2022/01/01 03:11:53;;;;;;;149.45;80.45;;;9.30;99.90;;;;;;4927115;29;20070;-47
2022/01/01 03:14:19;;;;;;;149.15;74.30;;;9.20;99.90;;;;;;4944053;28;20048;-49
2022/01/01 03:16:45;;;;;;;153.88;75.03;;;9.30;99.90;;;;;;4943985;28;20071;-47
2022/01/01 03:19:11;;;;;;;150.00;74.75;;;9.20;99.90;;;;;;4926555;28;20133;-48
2022/01/01 03:21:37;;;;;;;151.10;70.55;;;9.20;99.90;;;;;;4944705;28;20051;-48
2022/01/01 03:24:04;;;;;;;154.10;72.88;;;9.20;99.90;;;;;;4926959;28;20138;-47
2022/01/01 03:26:29;;;;;;;157.48;75.13;;;9.20;99.90;;;;;;4926544;29;20651;-48
2022/01/01 03:28:58;;;;;;;159.55;75.82;;;9.20;99.90;;;;;;4944003;28;20055;-48
2022/01/01 03:31:25;;;;;;;156.02;73.68;;;9.20;99.90;;;;;;4944171;28;20582;-46
2022/01/01 03:33:52;;;;;;;165.88;79.28;;;9.30;99.90;;;;;;4944846;28;20051;-48
2022/01/01 03:36:17;;;;;;;157.80;79.88;;;9.30;99.90;;;;;;4943687;28;20485;-47
2022/01/01 03:38:43;;;;;;;163.70;81.75;;;9.20;99.90;;;;;;4925419;28;20055;-48
2022/01/01 03:41:09;;;;;;;160.95;85.03;;;9.30;99.90;;;;;;4944361;28;20051;-48
2022/01/01 03:43:34;;;;;;;160.77;85.63;;;9.20;99.90;;;;;;4943652;28;20047;-48
2022/01/01 03:46:00;;;;;;;164.77;88.70;;;9.20;99.90;;;;;;4944471;28;20051;-47
2022/01/01 03:48:26;;;;;;;185.68;94.15;;;9.20;99.90;;;;;;4954106;28;20046;-50
2022/01/01 03:50:52;;;;;;;176.32;95.35;;;9.20;99.90;;;;;;4944541;29;20047;-47
2022/01/01 03:53:18;;;;;;;171.75;98.30;;;9.10;99.90;;;;;;4942328;29;20106;-48
2022/01/01 03:55:44;;;;;;;181.38;97.57;;;9.10;99.90;;;;;;4944055;29;20493;-51
2022/01/01 03:58:10;;;;;;;185.98;99.25;;;9.10;99.90;;;;;;4944210;29;20074;-49
2022/01/01 04:00:39;;;;;;;188.85;100.85;;;9.20;99.90;;;;;;4924922;29;20083;-48
2022/01/01 04:03:07;;;;;;;180.45;99.18;;;9.20;99.90;;;;;;4925623;29;20063;-47
2022/01/01 04:05:35;;;;;;;184.70;99.40;;;9.20;99.90;;;;;;4947074;29;20055;-52
2022/01/01 04:08:02;;;;;;;188.32;101.43;;;9.20;99.90;;;;;;4939845;29;20135;-50
2022/01/01 04:10:29;;;;;;;182.93;99.95;;;9.20;99.90;;;;;;4935133;29;20078;-49
2022/01/01 04:12:54;;;;;;;181.30;98.85;;;9.30;99.90;;;;;;4942849;28;20047;-50
2022/01/01 04:15:20;;;;;;;183.75;97.78;;;9.20;99.90;;;;;;4943540;28;20069;-47
2022/01/01 04:17:46;;;;;;;166.10;95.35;;;9.20;99.90;;;;;;4943186;28;20087;-47
2022/01/01 04:20:12;;;;;;;183.38;101.35;;;9.40;99.90;;;;;;4943608;29;20054;-46
2022/01/01 04:22:37;;;;;;;196.73;103.72;;;9.40;99.90;;;;;;4943578;29;20105;-47
2022/01/01 04:25:03;;;;;;;189.57;103.00;;;9.30;99.90;;;;;;4923030;29;20055;-49
2022/01/01 04:27:29;;;;;;;197.90;105.97;;;9.30;99.90;;;;;;4940466;28;20051;-47
2022/01/01 04:29:55;;;;;;;182.45;102.22;;;9.40;99.90;;;;;;4942815;29;20054;-48
2022/01/01 04:32:21;;;;;;;191.65;105.18;;;9.40;99.90;;;;;;4942922;29;20054;-48
2022/01/01 04:34:47;;;;;;;184.88;105.57;;;9.50;99.90;;;;;;4925578;29;20360;-47
2022/01/01 04:37:15;;;;;;;185.32;97.88;;;9.50;99.90;;;;;;4923945;29;20569;-47
2022/01/01 04:39:41;;;;;;;184.10;97.13;;;9.50;99.90;;;;;;4942346;29;20051;-47
2022/01/01 04:42:07;;;;;;;179.68;91.35;;;9.60;99.90;;;;;;4942228;29;20059;-48
2022/01/01 04:44:35;;;;;;;169.20;84.82;;;9.70;99.90;;;;;;4944406;29;20048;-47
2022/01/01 04:47:01;;;;;;;188.55;85.55;;;9.60;99.90;;;;;;4942723;28;20403;-49
2022/01/01 04:49:26;;;;;;;178.60;74.80;;;9.70;99.90;;;;;;4925888;29;20114;-46
2022/01/01 04:51:52;;;;;;;152.88;64.13;;;9.60;99.90;;;;;;4942722;29;20051;-47
2022/01/01 04:54:18;;;;;;;162.73;63.30;;;9.60;99.90;;;;;;4925107;29;20055;-48
2022/01/01 04:56:46;;;;;;;153.88;61.83;;;9.60;99.90;;;;;;4942654;28;20117;-47
2022/01/01 04:59:12;;;;;;;152.32;60.50;;;9.70;99.90;;;;;;4942814;28;20055;-49
2022/01/01 05:01:39;;;;;;;155.25;54.85;;;9.60;99.90;;;;;;4943732;28;20055;-47
2022/01/01 05:04:05;;;;;;;176.07;54.33;;;9.70;99.90;;;;;;4943558;28;20557;-48
2022/01/01 05:06:31;;;;;;;171.55;55.95;;;9.80;99.90;;;;;;4942719;28;20061;-50
2022/01/01 05:08:57;;;;;;;169.00;54.72;;;9.70;99.90;;;;;;4943329;28;20051;-49
2022/01/01 05:11:23;;;;;;;166.07;50.88;;;9.70;99.90;;;;;;4942754;28;20485;-50
2022/01/01 05:13:48;;;;;;;159.40;48.78;;;9.80;99.90;;;;;;4926091;29;20039;-50
2022/01/01 05:16:15;;;;;;;163.80;48.45;;;9.80;99.90;;;;;;4944429;28;20051;-49
2022/01/01 05:18:41;;;;;;;167.20;46.13;;;9.80;99.90;;;;;;4943675;28;20503;-51
2022/01/01 05:21:07;;;;;;;171.18;48.03;;;9.80;99.90;;;;;;4944037;28;20154;-50
2022/01/01 05:23:33;;;;;;;154.65;42.72;;;9.90;99.90;;;;;;4943729;29;20101;-50
2022/01/01 05:25:59;;;;;;;141.77;43.90;;;9.80;99.90;;;;;;4925555;29;20065;-48
2022/01/01 05:28:24;;;;;;;135.35;43.63;;;9.80;99.90;;;;;;4924514;28;20063;-48
2022/01/01 05:30:51;;;;;;;119.82;45.42;;;9.90;99.90;;;;;;4946379;28;20061;-48
2022/01/01 05:33:16;;;;;;;134.02;45.50;;;9.90;99.90;;;;;;4946075;28;20490;-48
2022/01/01 05:35:42;;;;;;;142.10;45.40;;;9.80;99.90;;;;;;4946511;28;20051;-47
2022/01/01 05:38:08;;;;;;;142.48;49.05;;;9.80;99.90;;;;;;4946496;28;20486;-47
2022/01/01 05:40:33;;;;;;;121.88;46.85;;;9.80;99.90;;;;;;4950681;28;20063;-47
2022/01/01 05:42:59;;;;;;;111.28;42.22;;;9.80;99.90;;;;;;4953521;28;20050;-47
2022/01/01 05:45:25;;;;;;;111.05;42.58;;;9.90;99.90;;;;;;4946905;28;20058;-46
2022/01/01 05:47:51;;;;;;;102.18;41.28;;;9.90;99.90;;;;;;4944511;28;20103;-47
2022/01/01 05:50:20;;;;;;;103.97;41.03;;;9.80;99.90;;;;;;4945467;29;20051;-49
2022/01/01 05:52:46;;;;;;;105.13;40.30;;;9.80;99.90;;;;;;4945307;28;20051;-47
2022/01/01 05:55:12;;;;;;;124.68;43.13;;;9.80;99.90;;;;;;4926040;29;20117;-47
2022/01/01 05:57:38;;;;;;;113.35;40.72;;;9.80;99.90;;;;;;4939280;28;20121;-47
2022/01/01 06:00:07;;;;;;;115.22;42.65;;;9.90;99.90;;;;;;4945352;28;20070;-47
2022/01/01 06:02:43;;;;;;;106.72;40.50;;;9.90;99.90;;;;;;4946243;28;20096;-48
2022/01/01 06:05:09;;;;;;;113.78;43.13;;;9.90;99.90;;;;;;4933773;28;20406;-48
2022/01/01 06:07:35;;;;;;;109.15;41.15;;;9.80;99.90;;;;;;4925254;28;20059;-49
2022/01/01 06:10:01;;;;;;;104.38;37.90;;;9.80;99.90;;;;;;4928155;29;20051;-47
2022/01/01 06:12:27;;;;;;;95.68;38.10;;;9.80;99.90;;;;;;4946079;28;20050;-47
2022/01/01 06:14:53;;;;;;;87.18;35.08;;;9.80;99.90;;;;;;4946403;29;20517;-47
2022/01/01 06:17:19;;;;;;;82.07;35.03;;;10.00;99.90;;;;;;4946158;29;20383;-48
2022/01/01 06:19:44;;;;;;;92.93;35.28;;;9.90;99.90;;;;;;4945762;29;20058;-49
2022/01/01 06:22:10;;;;;;;90.47;34.10;;;10.00;99.90;;;;;;4945656;29;20551;-47
2022/01/01 06:24:36;;;;;;;89.85;33.72;;;9.90;99.90;;;;;;4945628;29;20354;-47
2022/01/01 06:27:02;;;;;;;89.22;35.13;;;10.00;99.90;;;;;;4945454;29;20468;-47
2022/01/01 06:29:28;;;;;;;97.18;33.67;;;10.00;99.90;;;;;;4945417;29;20051;-48
2022/01/01 06:31:54;;;;;;;98.72;33.17;;;10.00;99.90;;;;;;4946309;29;20413;-48
2022/01/01 06:34:20;;;;;;;86.43;33.55;;;10.10;99.90;;;;;;4947911;28;20046;-50
2022/01/01 06:36:45;;;;;;;84.65;33.17;;;10.00;99.90;;;;;;4947764;28;20043;-49
2022/01/01 06:39:11;;;;;;;71.47;29.13;;;10.10;99.90;;;;;;4940748;28;20039;-51
2022/01/01 06:41:37;;;;;;;74.47;31.45;;;10.10;99.90;;;;;;4944345;28;20835;-48
2022/01/01 06:44:08;;;;;;;75.00;32.22;;;10.10;99.90;;;;;;4945750;29;20517;-47
2022/01/01 06:46:33;;;;;;;83.53;32.42;;;10.10;99.90;;;;;;4943289;28;20063;-47
2022/01/01 06:48:59;;;;;;;81.50;33.13;;;10.10;99.90;;;;;;4943670;29;20047;-48
2022/01/01 06:51:25;;;;;;;76.20;34.10;;;10.30;99.90;;;;;;4944261;28;20138;-49
2022/01/01 06:53:50;;;;;;;73.57;32.00;;;10.20;99.90;;;;;;4945091;29;20086;-48
2022/01/01 06:56:16;;;;;;;90.60;34.17;;;10.30;99.90;;;;;;4944941;29;20141;-47
2022/01/01 06:58:42;;;;;;;71.88;33.55;;;10.30;99.90;;;;;;4944884;29;20051;-51
2022/01/01 07:01:08;;;;;;;84.75;35.97;;;10.30;99.90;;;;;;4944669;29;20545;-47
2022/01/01 07:03:34;;;;;;;72.97;34.78;;;10.30;99.90;;;;;;4944381;28;20051;-48
2022/01/01 07:06:00;;;;;;;73.95;33.97;;;10.40;99.90;;;;;;4944335;29;20062;-48
2022/01/01 07:08:25;;;;;;;77.47;35.75;;;10.30;99.90;;;;;;4910522;29;20055;-47
2022/01/01 07:10:51;;;;;;;82.25;35.70;;;10.40;99.90;;;;;;4944526;28;20050;-48
2022/01/01 07:13:18;;;;;;;75.45;35.97;;;10.40;99.90;;;;;;4936752;29;20162;-47
2022/01/01 07:15:44;;;;;;;83.75;35.80;;;10.40;99.90;;;;;;4944390;29;20055;-48
2022/01/01 07:18:09;;;;;;;79.60;37.03;;;10.50;99.90;;;;;;4944239;29;20054;-48
2022/01/01 07:20:35;;;;;;;75.55;36.35;;;10.40;99.90;;;;;;4945468;29;20043;-49
2022/01/01 07:23:01;;;;;;;78.47;37.55;;;10.50;99.90;;;;;;4944578;29;20517;-48
2022/01/01 07:25:28;;;;;;;79.50;37.83;;;10.60;99.90;;;;;;4944242;29;20434;-47
2022/01/01 07:27:54;;;;;;;77.15;37.08;;;10.40;99.90;;;;;;4926332;29;20671;-49
2022/01/01 07:30:20;;;;;;;80.28;38.10;;;10.60;99.90;;;;;;4944258;29;20570;-49
2022/01/01 07:32:47;;;;;;;84.18;39.40;;;10.50;99.90;;;;;;4945090;29;20410;-50
2022/01/01 07:35:15;;;;;;;80.15;41.25;;;10.60;99.90;;;;;;4956304;28;20405;-48
2022/01/01 07:37:40;;;;;;;85.95;40.53;;;10.60;99.90;;;;;;4944309;28;20048;-50
2022/01/01 07:40:09;;;;;;;84.28;41.92;;;10.60;99.90;;;;;;4944208;29;20051;-48
2022/01/01 07:42:35;;;;;;;83.72;41.30;;;10.60;99.90;;;;;;4944762;28;20058;-51
2022/01/01 07:45:01;;;;;;;87.68;43.05;;;10.70;99.90;;;;;;4938605;28;20713;-48
2022/01/01 07:47:27;;;;;;;86.45;42.20;;;10.70;99.90;;;;;;4935735;28;20131;-49
2022/01/01 07:49:53;;;;;;;86.57;43.45;;;10.60;99.90;;;;;;4946857;29;20043;-48
2022/01/01 07:52:19;;;;;;;82.47;43.03;;;10.70;99.90;;;;;;4909074;29;20509;-52
2022/01/01 07:54:44;;;;;;;89.28;43.22;;;10.80;99.90;;;;;;4943582;29;20069;-49
2022/01/01 07:57:10;;;;;;;82.70;44.47;;;10.70;99.90;;;;;;4944126;29;20043;-51
2022/01/01 07:59:36;;;;;;;83.82;41.75;;;10.70;99.90;;;;;;4943877;29;20543;-48
2022/01/01 08:02:02;;;;;;;85.63;41.60;;;10.90;99.90;;;;;;4945159;29;20050;-52
2022/01/01 08:04:27;;;;;;;76.95;42.53;;;10.90;99.90;;;;;;4944732;29;20054;-48
2022/01/01 08:06:53;;;;;;;80.03;42.63;;;10.80;99.90;;;;;;4943446;29;20458;-48
2022/01/01 08:09:19;;;;;;;79.80;41.03;;;10.90;99.90;;;;;;4943623;29;20055;-48
2022/01/01 08:11:44;;;;;;;86.90;42.13;;;10.80;99.90;;;;;;4943170;29;20263;-47
2022/01/01 08:14:10;;;;;;;78.95;41.60;;;10.80;99.90;;;;;;4943176;29;20053;-51
2022/01/01 08:16:59;;;;;;;84.15;42.70;;;10.90;99.90;;;;;;4943108;29;20051;-48
2022/01/01 08:19:25;;;;;;;68.38;39.58;;;10.90;99.90;;;;;;4942236;29;20051;-49
2022/01/01 08:21:52;;;;;;;76.43;39.53;;;11.00;99.90;;;;;;4927181;29;20098;-49
2022/01/01 08:24:19;;;;;;;74.22;38.60;;;10.90;99.90;;;;;;4924075;29;20059;-51
2022/01/01 08:26:45;;;;;;;71.72;37.38;;;10.90;99.90;;;;;;4924150;29;20142;-50
2022/01/01 08:29:10;;;;;;;76.57;37.75;;;10.90;99.90;;;;;;4941929;28;20045;-50
2022/01/01 08:31:36;;;;;;;73.00;36.55;;;10.90;99.90;;;;;;4925891;29;20051;-48
2022/01/01 08:34:02;;;;;;;69.18;37.05;;;10.90;99.90;;;;;;4946113;28;20125;-48
2022/01/01 08:36:28;;;;;;;67.15;36.88;;;10.90;99.90;;;;;;4943888;29;20142;-47
2022/01/01 08:38:54;;;;;;;58.20;34.05;;;10.90;99.90;;;;;;4924898;29;20339;-47
2022/01/01 08:41:19;;;;;;;63.45;31.90;;;10.90;99.90;;;;;;4934538;28;20059;-48
2022/01/01 08:43:45;;;;;;;67.22;33.65;;;10.90;99.90;;;;;;4933009;29;20051;-47
2022/01/01 08:46:11;;;;;;;58.17;31.45;;;10.90;99.90;;;;;;4942345;28;20301;-48
2022/01/01 08:48:37;;;;;;;55.42;29.42;;;11.00;99.90;;;;;;4908339;29;20082;-49
2022/01/01 08:51:16;;;;;;;57.67;29.33;;;10.90;99.90;;;;;;4936496;29;20538;-47
2022/01/01 08:53:43;;;;;;;54.45;30.15;;;10.90;99.90;;;;;;4931947;29;20047;-48
2022/01/01 08:56:09;;;;;;;54.28;29.30;;;11.00;99.90;;;;;;4925805;28;20130;-48
2022/01/01 08:58:41;;;;;;;62.58;31.92;;;10.90;99.90;;;;;;4943283;28;20142;-48
2022/01/01 09:01:08;;;;;;;60.38;32.60;;;11.00;99.90;;;;;;4942905;28;20055;-50
2022/01/01 09:03:35;;;;;;;58.70;33.85;;;10.90;99.90;;;;;;4946481;28;20043;-49
2022/01/01 09:06:05;;;;;;;65.20;34.65;;;10.90;99.90;;;;;;4950216;28;20504;-48
2022/01/01 09:08:32;;;;;;;63.83;33.95;;;10.90;99.90;;;;;;4946718;28;20054;-48
2022/01/01 09:10:58;;;;;;;60.90;32.78;;;11.00;99.90;;;;;;4929224;28;20102;-49
2022/01/01 09:13:24;;;;;;;61.50;31.10;;;10.90;99.90;;;;;;4933226;29;20047;-49
2022/01/01 09:15:50;;;;;;;58.97;30.02;;;11.00;99.90;;;;;;4947123;28;20079;-52
2022/01/01 09:18:16;;;;;;;50.53;28.98;;;11.00;99.90;;;;;;4936629;28;20077;-48
2022/01/01 09:20:42;;;;;;;51.22;28.65;;;11.10;99.90;;;;;;4947684;28;20569;-49
2022/01/01 09:23:07;;;;;;;51.47;27.90;;;11.00;99.90;;;;;;4945866;28;20047;-48
2022/01/01 09:25:33;;;;;;;54.45;27.73;;;11.00;99.90;;;;;;4946488;28;20090;-49
2022/01/01 09:27:59;;;;;;;51.28;27.10;;;11.00;99.90;;;;;;4945662;28;20089;-48
2022/01/01 09:30:25;;;;;;;56.95;27.50;;;11.00;99.90;;;;;;4946336;28;20047;-47
2022/01/01 09:32:51;;;;;;;51.72;25.67;;;11.10;99.90;;;;;;4945263;28;20051;-48
2022/01/01 09:35:18;;;;;;;45.65;24.73;;;11.10;99.90;;;;;;4947327;28;20517;-48
2022/01/01 09:37:44;;;;;;;46.83;25.42;;;11.10;99.90;;;;;;4925749;29;20063;-48
2022/01/01 09:40:10;;;;;;;47.65;26.35;;;11.20;99.90;;;;;;4921144;28;20411;-51
2022/01/01 09:42:36;;;;;;;48.60;25.13;;;11.20;99.90;;;;;;4945741;28;20047;-48
2022/01/01 09:45:06;;;;;;;42.53;23.02;;;11.20;99.90;;;;;;4945827;28;20055;-49
2022/01/01 09:47:32;;;;;;;43.25;23.10;;;11.10;99.90;;;;;;4919127;29;20098;-48
2022/01/01 09:49:58;;;;;;;40.30;21.92;;;11.10;99.90;;;;;;4929299;29;20051;-48
2022/01/01 09:52:24;;;;;;;42.53;22.38;;;11.10;99.90;;;;;;4946757;28;20213;-49
2022/01/01 09:54:51;;;;;;;42.78;22.45;;;11.10;99.90;;;;;;4946525;28;20138;-48
2022/01/01 09:57:17;;;;;;;38.28;21.35;;;11.10;99.90;;;;;;4945928;28;21266;-47
2022/01/01 09:59:43;;;;;;;46.58;22.88;;;11.10;99.90;;;;;;4929130;29;20071;-47
2022/01/01 10:02:09;;;;;;;44.45;21.92;;;11.20;99.90;;;;;;4946785;28;20051;-47
2022/01/01 10:04:41;;;;;;;38.60;21.77;;;11.10;99.90;;;;;;4944734;28;20125;-47
2022/01/01 10:07:08;;;;;;;40.38;22.08;;;11.10;99.90;;;;;;4925207;29;20087;-50
2022/01/01 10:09:35;;;;;;;39.95;22.70;;;11.10;99.90;;;;;;4943115;29;20050;-48
2022/01/01 10:12:09;;;;;;;42.10;21.50;;;11.10;99.90;;;;;;4946013;29;20047;-48
2022/01/01 10:14:41;;;;;;;34.08;21.60;;;11.10;99.90;;;;;;4944545;28;20134;-48
2022/01/01 10:17:21;;;;;;;40.60;21.75;;;11.10;99.90;;;;;;4945741;28;20051;-47
2022/01/01 10:19:52;;;;;;;40.42;20.52;;;11.10;99.90;;;;;;4945229;28;20047;-48
2022/01/01 10:22:19;;;;;;;38.60;21.55;;;11.20;99.90;;;;;;4945233;28;20055;-49
2022/01/01 10:27:43;;;;;;;39.95;20.25;;;11.10;99.90;;;;;;4946063;28;20078;-50
2022/01/01 10:30:21;;;;;;;41.03;21.88;;;11.20;99.90;;;;;;4945925;28;20666;-51
2022/01/01 10:33:07;;;;;;;38.35;20.33;;;11.20;99.90;;;;;;4942913;28;20683;-55
2022/01/01 10:35:47;;;;;;;35.22;20.38;;;11.20;99.90;;;;;;4937941;28;20574;-51
2022/01/01 10:38:23;;;;;;;33.17;17.98;;;11.20;99.90;;;;;;4943383;28;20577;-48
2022/01/01 10:41:05;;;;;;;35.83;20.00;;;11.30;99.90;;;;;;4924987;29;20860;-49
2022/01/01 10:43:39;;;;;;;33.38;18.77;;;11.30;99.90;;;;;;4942008;28;20066;-49
2022/01/01 10:46:07;;;;;;;36.25;19.38;;;11.30;99.90;;;;;;4944826;28;20053;-48
2022/01/01 10:51:07;;;;;;;28.23;17.73;;;11.40;99.90;;;;;;4942530;28;20057;-49
2022/01/01 10:53:34;;;;;;;24.85;16.25;;;11.50;99.90;;;;;;4926472;29;20050;-48
2022/01/01 10:56:15;;;;;;;32.28;17.85;;;11.50;99.90;;;;;;4928880;29;20162;-48
2022/01/01 10:58:42;;;;;;;32.50;16.60;;;11.50;99.90;;;;;;4938972;29;20039;-48
2022/01/01 11:01:09;;;;;;;32.35;16.50;;;11.50;99.90;;;;;;4944216;28;20110;-49
2022/01/01 11:03:40;;;;;;;30.77;16.77;;;11.50;99.90;;;;;;4944539;29;20073;-47
2022/01/01 11:06:15;;;;;;;25.48;15.40;;;11.50;99.90;;;;;;4926858;28;20487;-51
2022/01/01 11:08:42;;;;;;;25.50;14.60;;;11.50;99.90;;;;;;4944359;28;20047;-49
2022/01/01 11:11:10;;;;;;;28.95;14.95;;;11.50;99.90;;;;;;4941631;28;20067;-51
2022/01/01 11:13:37;;;;;;;22.90;13.95;;;11.60;99.90;;;;;;4927254;29;20066;-48
2022/01/01 11:16:04;;;;;;;24.73;14.02;;;11.60;99.90;;;;;;4943441;28;20524;-50
2022/01/01 11:18:31;;;;;;;24.48;13.40;;;11.60;99.90;;;;;;4944594;28;20505;-48
2022/01/01 11:20:58;;;;;;;21.88;13.98;;;11.70;99.90;;;;;;4943747;28;20047;-49
2022/01/01 11:23:25;;;;;;;20.45;13.70;;;11.80;99.90;;;;;;4924856;29;20509;-49
2022/01/01 11:25:52;;;;;;;24.15;13.63;;;11.80;99.90;;;;;;4941412;28;20569;-48
2022/01/01 11:28:20;;;;;;;26.52;12.60;;;11.80;99.90;;;;;;4943647;28;20478;-47
2022/01/01 11:31:07;;;;;;;24.65;12.45;;;11.90;99.90;;;;;;4944263;28;20429;-48
2022/01/01 11:33:41;;;;;;;23.80;11.55;;;11.90;99.90;;;;;;4941925;28;20154;-50
2022/01/01 11:36:20;;;;;;;23.55;12.00;;;11.90;99.90;;;;;;4923917;29;20525;-48
2022/01/01 11:38:46;;;;;;;23.77;10.65;;;11.90;99.90;;;;;;4942435;28;20540;-47
2022/01/01 11:41:14;;;;;;;19.20;10.57;;;11.90;99.90;;;;;;4910872;29;20051;-48
2022/01/01 11:43:49;;;;;;;22.48;11.15;;;11.90;99.90;;;;;;4923340;28;20050;-49
2022/01/01 11:46:33;;;;;;;20.13;11.68;;;11.90;99.90;;;;;;4928947;29;20057;-49
2022/01/01 11:49:01;;;;;;;27.52;12.13;;;11.90;99.90;;;;;;4941231;29;20035;-48
2022/01/01 11:51:38;;;;;;;19.23;11.15;;;11.90;99.90;;;;;;4942120;28;20079;-51
2022/01/01 11:54:27;;;;;;;19.13;10.65;;;11.90;99.90;;;;;;4931822;29;20052;-48
2022/01/01 11:56:59;;;;;;;22.42;11.18;;;11.90;99.90;;;;;;4940113;29;20051;-48
2022/01/01 11:59:26;;;;;;;23.05;10.65;;;11.80;99.90;;;;;;4940971;29;20039;-50
2022/01/01 12:01:54;;;;;;;20.65;10.27;;;11.80;99.90;;;;;;4942761;29;20062;-48
2022/01/01 12:04:34;;;;;;;21.23;11.98;;;11.90;99.90;;;;;;4934723;29;20490;-47
2022/01/01 12:07:10;;;;;;;15.10;9.90;;;11.80;99.90;;;;;;4942439;29;20047;-50
2022/01/01 12:09:55;;;;;;;18.73;10.15;;;11.90;99.90;;;;;;4924089;29;20059;-48
2022/01/01 12:12:45;;;;;;;19.92;10.85;;;11.90;99.90;;;;;;4931000;29;20098;-48
2022/01/01 12:15:24;;;;;;;16.55;10.00;;;11.90;99.90;;;;;;4943893;29;20047;-49
2022/01/01 12:17:50;;;;;;;19.45;10.95;;;11.90;99.90;;;;;;4943021;29;20055;-49
2022/01/01 12:20:18;;;;;;;21.15;11.30;;;11.90;99.90;;;;;;4942135;29;20047;-48
2022/01/01 12:22:45;;;;;;;16.38;10.50;;;11.90;99.90;;;;;;4926265;29;20521;-50
2022/01/01 12:25:21;;;;;;;21.10;11.25;;;11.90;99.90;;;;;;4926992;29;20082;-48
2022/01/01 12:27:51;;;;;;;17.23;11.20;;;11.90;99.90;;;;;;4942556;28;20058;-48
2022/01/01 12:30:42;;;;;;;15.55;10.45;;;11.90;99.90;;;;;;4943926;28;20055;-50
2022/01/01 12:33:11;;;;;;;18.38;10.27;;;11.90;99.90;;;;;;4928062;29;20418;-47
2022/01/01 12:35:53;;;;;;;19.35;11.60;;;11.90;99.90;;;;;;4943809;28;20059;-49